Time;durP1;ratioP1;P1;durP2;ratioP2;P2;SDS_P1;SDS_P2;PMS_P1;PMS_P2;Temp;Humidity;BMP_temperature;BMP_pressure;BME280_temperature;BME280_humidity;BME280_pressure;Samples;Min_cycle;Max_cycle;Signal;HPM_P1;HPM_P2
2023/01/24 03:36:23;;;;;;;;;;;;;;;;;;;;;
2023/01/24 03:49:20;;;;;;;;;;;;;;;;;;;;;
2023/01/24 05:01:13;;;;;;;;;;;;;;;2.55;73.49;101512.53;1087922;46;19954;-79
2023/01/24 05:02:42;;;;;;;;;;;;;;;2.57;73.07;101516.00;1093290;39;20153;-80
2023/01/24 05:12:03;;;;;;;;;;;;;;;2.59;73.60;101529.16;1087568;54;20309;-79
2023/01/24 05:13:04;;;;;;;;;;;;;;;2.65;73.12;101526.28;1087819;54;20334;-79
2023/01/24 05:14:10;;;;;;;;;;;;;;;2.64;73.09;101521.91;1087776;54;20026;-78
2023/01/24 05:15:13;;;;;;;;;;;;;;;2.59;73.32;101530.00;1087797;54;19938;-79
2023/01/24 05:16:14;;;;;;;;;;;;;;;2.61;73.32;101532.59;1087989;54;19942;-79
2023/01/24 05:17:18;;;;;;;;;;;;;;;2.57;73.31;101529.19;1089383;47;19935;-79
2023/01/24 05:18:19;;;;;;;;;;;;;;;2.53;73.57;101527.59;1090141;46;19938;-80
2023/01/24 05:19:23;;;;;;;;;;;;;;;2.55;73.63;101532.81;1088169;54;19943;-80
2023/01/24 05:20:24;;;;;;;;;;;;;;;2.56;73.49;101530.13;1088039;54;19942;-80
2023/01/24 05:21:28;;;;;;;;;;;;;;;2.57;73.40;101529.19;1088873;46;19951;-79
2023/01/24 05:22:29;;;;;;;;;;;;;;;2.55;73.41;101530.19;1088525;46;19953;-79
2023/01/24 05:23:33;;;;;;;;;;;;;;;2.56;73.50;101523.97;1088979;46;19938;-80
2023/01/24 05:24:34;;;;;;;;;;;;;;;2.58;73.59;101528.28;1088981;46;19931;-80
2023/01/24 05:25:37;;;;;;;;;;;;;;;2.62;73.49;101537.81;1087966;54;19943;-80
2023/01/24 05:26:38;;;;;;;;;;;;;;;2.63;73.39;101534.28;1088135;54;19930;-80
2023/01/24 05:27:45;;;;;;;;;;;;;;;2.64;73.25;101530.72;1088166;54;19947;-80
2023/01/24 05:28:46;;;;;;;;;;;;;;;2.60;73.45;101531.72;1088158;54;19939;-81
2023/01/24 05:29:50;;;;;;;;;;;;;;;2.60;73.58;101536.13;1088131;54;19939;-81
2023/01/24 05:30:51;;;;;;;;;;;;;;;2.58;73.64;101527.44;1088103;54;19950;-80
2023/01/24 05:31:55;;;;;;;;;;;;;;;2.55;73.65;101533.66;1090053;46;19939;-80
2023/01/24 05:32:56;;;;;;;;;;;;;;;2.54;73.69;101534.63;1088516;46;19926;-80
2023/01/24 05:34:00;;;;;;;;;;;;;;;2.53;73.67;101534.66;1088126;54;19943;-80
2023/01/24 05:35:01;;;;;;;;;;;;;;;2.57;73.62;101529.19;1088464;46;19942;-80
2023/01/24 05:36:05;;;;;;;;;;;;;;;2.55;73.50;101532.81;1088048;54;19942;-79
2023/01/24 05:37:06;;;;;;;;;;;;;;;2.56;73.93;101535.41;1088087;54;19942;-79
2023/01/24 05:38:10;;;;;;;;;;;;;;;2.50;73.89;101536.47;1088103;54;19945;-79
2023/01/24 05:39:11;;;;;;;;;;;;;;;2.52;73.83;101539.09;1088133;54;19942;-80
2023/01/24 05:40:15;;;;;;;;;;;;;;;2.58;73.82;101533.56;1088022;54;19939;-80
2023/01/24 05:41:17;;;;;;;;;;;;;;;2.54;73.67;101537.25;1088099;54;19934;-80
2023/01/24 05:42:21;;;;;;;;;;;;;;;2.55;73.87;101535.47;1088154;54;19923;-79
2023/01/24 05:43:25;;;;;;;;;;;;;;;2.56;73.83;101543.31;1088156;54;19947;-79
2023/01/24 05:44:28;;;;;;;;;;;;;;;2.60;73.76;101539.66;1087994;54;19938;-79
2023/01/24 05:45:30;;;;;;;;;;;;;;;2.63;73.71;101536.03;1088132;54;19930;-79
2023/01/24 05:46:34;;;;;;;;;;;;;;;2.61;73.78;101540.50;1088168;54;20636;-79
2023/01/24 05:47:35;;;;;;;;;;;;;;;2.61;73.78;101544.03;1088624;46;19939;-78
2023/01/24 05:48:39;;;;;;;;;;;;;;;2.64;73.86;101545.69;1089896;46;19950;-79
2023/01/24 05:49:40;;;;;;;;;;;;;;;2.67;73.76;101536.78;1088182;54;19950;-79
2023/01/24 05:50:43;;;;;;;;;;;;;;;2.61;73.62;101544.03;1088118;54;19939;-79
2023/01/24 05:51:44;;;;;;;;;;;;;;;2.59;73.61;101545.84;1088164;54;19950;-78
2023/01/24 05:52:48;;;;;;;;;;;;;;;2.63;73.65;101550.13;1088158;54;19949;-79
2023/01/24 05:53:49;;;;;;;;;;;;;;;2.59;73.72;101551.13;1088132;54;20698;-79
2023/01/24 05:54:54;;;;;;;;;;;;;;;2.58;73.66;101549.41;1088133;54;19923;-79
2023/01/24 05:55:57;;;;;;;;;;;;;;;2.58;73.67;101549.41;1088011;54;19943;-79
2023/01/24 05:57:01;;;;;;;;;;;;;;;2.61;73.54;101549.31;1088113;54;19934;-79
2023/01/24 05:58:02;;;;;;;;;;;;;;;2.61;73.89;101554.59;1088075;54;19946;-79
2023/01/24 05:59:10;;;;;;;;;;;;;;;2.57;73.85;101552.97;1088759;46;19934;-79
2023/01/24 06:00:12;;;;;;;;;;;;;;;2.55;73.93;101560.06;1088169;46;19951;-78
2023/01/24 06:01:16;;;;;;;;;;;;;;;2.57;73.84;101558.25;1087938;54;19991;-79
2023/01/24 06:02:18;;;;;;;;;;;;;;;2.60;73.88;101563.41;1088541;46;19931;-79
2023/01/24 06:03:22;;;;;;;;;;;;;;;2.60;73.78;101563.41;1087967;54;19923;-78
2023/01/24 06:04:23;;;;;;;;;;;;;;;2.59;73.81;101556.41;1087673;54;19946;-79
2023/01/24 06:05:27;;;;;;;;;;;;;;;2.58;73.60;101564.41;1087632;54;19939;-79
2023/01/24 06:06:30;;;;;;;;;;;;;;;2.57;73.89;101568.81;1088166;47;20288;-79
2023/01/24 06:07:31;;;;;;;;;;;;;;;2.59;73.72;101566.97;1088518;46;19930;-79
2023/01/24 06:08:35;;;;;;;;;;;;;;;2.64;73.89;101572.09;1088685;46;19942;-81
2023/01/24 06:09:36;;;;;;;;;;;;;;;2.67;73.64;101573.75;1087975;54;19938;-79
2023/01/24 06:11:56;;;;;;;;;;;;;;;2.57;73.86;101581.16;1088177;54;19935;-79
2023/01/24 06:12:59;;;;;;;;;;;;;;;2.60;73.91;101578.38;1089942;46;20175;-78
2023/01/24 06:14:03;;;;;;;;;;;;;;;2.60;73.87;101579.25;1088067;54;19949;-80
2023/01/24 06:15:07;;;;;;;;;;;;;;;2.62;74.02;101579.19;1088075;54;19930;-78
2023/01/24 06:16:12;;;;;;;;;;;;;;;2.60;73.97;101581.03;1088052;54;19938;-80
2023/01/24 06:17:13;;;;;;;;;;;;;;;2.63;74.14;101578.28;1088763;46;19927;-79
2023/01/24 06:18:20;;;;;;;;;;;;;;;2.64;74.00;101577.38;1088137;54;19939;-79
2023/01/24 06:19:21;;;;;;;;;;;;;;;2.67;73.79;101571.97;1091287;46;19939;-78
2023/01/24 06:20:25;;;;;;;;;;;;;;;2.68;73.67;101578.13;1087980;54;19923;-79
2023/01/24 06:21:41;;;;;;;;;;;;;;;2.66;73.81;101578.19;1088095;54;19922;-79
2023/01/24 06:22:44;;;;;;;;;;;;;;;2.66;73.92;101578.19;1088225;46;19923;-79
2023/01/24 06:23:48;;;;;;;;;;;;;;;2.69;73.77;101578.09;1090100;46;19923;-79
2023/01/24 06:24:50;;;;;;;;;;;;;;;2.66;73.57;101578.19;1088163;46;19939;-79
2023/01/24 06:25:54;;;;;;;;;;;;;;;2.71;73.61;101578.84;1088039;54;19943;-79
2023/01/24 06:26:55;;;;;;;;;;;;;;;2.65;73.91;101579.94;1090521;46;19942;-79
2023/01/24 06:27:59;;;;;;;;;;;;;;;2.64;74.00;101580.00;1088074;54;20622;-79
2023/01/24 06:29:03;;;;;;;;;;;;;;;2.68;73.97;101581.63;1088824;46;19946;-79
2023/01/24 06:30:09;;;;;;;;;;;;;;;2.69;73.70;101585.13;1087964;54;19950;-79
2023/01/24 06:31:19;;;;;;;;;;;;;;;2.64;74.05;101585.28;1087917;54;19942;-79
2023/01/24 06:32:27;;;;;;;;;;;;;;;2.62;73.92;101592.41;1088572;46;19922;-79
2023/01/24 06:33:38;;;;;;;;;;;;;;;2.63;73.86;101587.09;1088002;54;20018;-79
2023/01/24 06:34:57;;;;;;;;;;;;;;;2.63;74.05;101587.09;1094512;39;20167;-80
2023/01/24 06:36:18;;;;;;;;;;;;;;;2.58;74.01;101580.25;1088076;54;19996;-79
2023/01/24 06:37:23;;;;;;;;;;;;;;;2.68;74.15;101583.41;1088075;54;19949;-79
2023/01/24 06:38:27;;;;;;;;;;;;;;;2.64;73.72;101580.88;1088094;47;19943;-78
2023/01/24 06:39:29;;;;;;;;;;;;;;;2.60;73.98;101592.47;1088053;54;20019;-78
2023/01/24 06:40:33;;;;;;;;;;;;;;;2.58;74.40;101585.53;1087998;47;19943;-78
2023/01/24 06:41:37;;;;;;;;;;;;;;;2.59;74.05;101595.19;1088011;54;19939;-79
2023/01/24 06:42:39;;;;;;;;;;;;;;;2.64;74.46;101591.44;1087985;54;19943;-79
2023/01/24 06:43:42;;;;;;;;;;;;;;;2.58;74.00;101596.94;1087967;54;19939;-79
2023/01/24 06:44:44;;;;;;;;;;;;;;;2.55;74.45;101599.69;1087990;54;19939;-78
2023/01/24 06:45:50;;;;;;;;;;;;;;;2.57;74.51;101600.50;1088045;54;19949;-78
2023/01/24 06:46:51;;;;;;;;;;;;;;;2.59;74.67;101593.38;1088169;47;19950;-78
2023/01/24 06:47:57;;;;;;;;;;;;;;;2.60;74.36;101599.50;1087996;54;19939;-79
2023/01/24 06:49:00;;;;;;;;;;;;;;;2.61;74.29;101595.97;1088047;54;20006;-79
2023/01/24 06:50:01;;;;;;;;;;;;;;;2.56;74.67;101593.47;1088695;46;19954;-78
2023/01/24 06:51:08;;;;;;;;;;;;;;;2.56;74.35;101596.13;1089899;46;19946;-79
2023/01/24 06:52:16;;;;;;;;;;;;;;;2.58;74.51;101590.81;1087969;54;19946;-79
2023/01/24 06:53:17;;;;;;;;;;;;;;;2.58;74.37;101591.66;1088058;47;20207;-79
2023/01/24 06:54:21;;;;;;;;;;;;;;;2.59;74.33;101588.09;1088081;54;19939;-79
2023/01/24 06:55:23;;;;;;;;;;;;;;;2.56;74.78;101582.06;1088093;54;19938;-79
2023/01/24 06:56:26;;;;;;;;;;;;;;;2.56;74.72;101587.34;1088084;54;19926;-78
2023/01/24 06:57:27;;;;;;;;;;;;;;;2.54;74.54;101595.34;1088507;46;19923;-79
2023/01/24 06:58:31;;;;;;;;;;;;;;;2.58;74.59;101594.28;1088406;54;19930;-79
2023/01/24 06:59:32;;;;;;;;;;;;;;;2.60;74.55;101600.38;1088433;54;19927;-78
2023/01/24 07:00:36;;;;;;;;;;;;;;;2.67;74.37;101603.69;1089436;46;19926;-79
2023/01/24 07:01:42;;;;;;;;;;;;;;;2.69;74.30;101604.50;1088488;46;19934;-78
2023/01/24 07:02:43;;;;;;;;;;;;;;;2.72;74.16;101614.06;1088481;54;19930;-79
2023/01/24 07:03:47;;;;;;;;;;;;;;;2.71;74.13;101612.34;1088869;46;19963;-79
2023/01/24 07:04:48;;;;;;;;;;;;;;;2.66;74.06;101609.88;1088513;46;19923;-78
2023/01/24 07:05:52;;;;;;;;;;;;;;;2.70;74.33;101614.09;1088315;54;19923;-80
2023/01/24 07:06:53;;;;;;;;;;;;;;;2.69;74.47;101619.47;1091409;46;19945;-79
2023/01/24 07:07:57;;;;;;;;;;;;;;;2.62;74.31;101614.41;1088816;46;19942;-79
2023/01/24 07:09:01;;;;;;;;;;;;;;;2.59;74.71;101619.78;1088386;54;19943;-79
2023/01/24 07:10:02;;;;;;;;;;;;;;;2.57;74.62;101611.06;1088317;54;19923;-79
2023/01/24 07:11:06;;;;;;;;;;;;;;;2.55;74.95;101612.03;1090451;46;19923;-79
2023/01/24 07:12:07;;;;;;;;;;;;;;;2.58;74.77;101618.06;1088397;54;19938;-79
2023/01/24 07:13:11;;;;;;;;;;;;;;;2.60;74.87;101610.94;1088448;54;20270;-78
2023/01/24 07:14:14;;;;;;;;;;;;;;;2.61;74.71;101607.41;1089395;46;19927;-79
2023/01/24 07:15:16;;;;;;;;;;;;;;;2.58;74.55;101604.00;1088346;54;19946;-78
2023/01/24 07:16:20;;;;;;;;;;;;;;;2.59;74.66;101603.94;1088300;54;19954;-79
2023/01/24 07:17:24;;;;;;;;;;;;;;;2.62;74.79;101603.84;1088634;46;19942;-79
2023/01/24 07:18:28;;;;;;;;;;;;;;;2.66;74.30;101599.31;1088149;54;19939;-79
2023/01/24 07:19:29;;;;;;;;;;;;;;;2.77;74.47;101612.09;1088555;46;19947;-78
2023/01/24 07:20:33;;;;;;;;;;;;;;;2.68;74.24;101602.75;1089410;46;19946;-78
2023/01/24 07:21:39;;;;;;;;;;;;;;;2.66;74.40;101604.59;1088000;54;19939;-79
2023/01/24 07:22:44;;;;;;;;;;;;;;;2.60;74.44;101603.03;1088540;47;19942;-79
2023/01/24 07:23:49;;;;;;;;;;;;;;;2.60;74.78;101616.22;1088099;47;19943;-79
2023/01/24 07:24:53;;;;;;;;;;;;;;;2.59;74.77;101613.66;1087948;54;20024;-79
2023/01/24 07:25:55;;;;;;;;;;;;;;;2.60;74.62;101618.88;1087865;54;19954;-79
2023/01/24 07:26:59;;;;;;;;;;;;;;;2.60;74.77;101616.22;1088026;54;19942;-79
2023/01/24 07:28:00;;;;;;;;;;;;;;;2.57;74.80;101615.47;1087995;54;19943;-79
2023/01/24 07:29:07;;;;;;;;;;;;;;;2.55;74.81;101610.22;1088006;54;19947;-79
2023/01/24 07:30:14;;;;;;;;;;;;;;;2.53;74.90;101614.72;1087945;54;19938;-78
2023/01/24 07:31:18;;;;;;;;;;;;;;;2.56;74.95;101619.88;1089432;46;19943;-78
2023/01/24 07:32:25;;;;;;;;;;;;;;;2.57;75.01;101615.47;1087941;54;19943;-79
2023/01/24 07:33:29;;;;;;;;;;;;;;;2.52;74.96;101617.41;1088816;46;19998;-79
2023/01/24 07:34:33;;;;;;;;;;;;;;;2.56;75.03;101626.97;1087989;54;19950;-78
2023/01/24 07:35:37;;;;;;;;;;;;;;;2.61;74.96;101625.88;1087922;54;19942;-80
2023/01/24 07:36:43;;;;;;;;;;;;;;;2.55;74.85;101620.78;1087925;54;19955;-79
2023/01/24 07:37:46;;;;;;;;;;;;;;;2.58;75.39;101627.78;1088235;39;20554;-79
2023/01/24 07:38:47;;;;;;;;;;;;;;;2.56;75.16;101619.88;1087912;54;19958;-79
2023/01/24 07:39:51;;;;;;;;;;;;;;;2.61;74.88;101623.25;1087714;54;19922;-79
2023/01/24 07:40:52;;;;;;;;;;;;;;;2.65;75.08;101629.28;1087895;54;19942;-79
2023/01/24 07:41:56;;;;;;;;;;;;;;;2.64;74.89;101628.41;1087863;54;19979;-79
2023/01/24 07:42:58;;;;;;;;;;;;;;;2.60;75.03;101623.28;1087969;54;19939;-79
2023/01/24 07:44:04;;;;;;;;;;;;;;;2.60;74.86;101628.56;1087868;54;19946;-79
2023/01/24 07:45:06;;;;;;;;;;;;;;;2.61;75.00;101638.22;1087865;54;19943;-79
2023/01/24 07:46:10;;;;;;;;;;;;;;;2.62;74.74;101637.28;1088165;47;19933;-79
2023/01/24 07:47:11;;;;;;;;;;;;;;;2.63;74.82;101631.09;1087827;54;19946;-79
2023/01/24 07:48:14;;;;;;;;;;;;;;;2.67;74.58;101629.19;1087896;54;19943;-79
2023/01/24 07:49:18;;;;;;;;;;;;;;;2.67;74.88;101624.81;1087881;54;19938;-80
2023/01/24 07:50:22;;;;;;;;;;;;;;;2.65;74.83;101624.00;1088193;47;19943;-78
2023/01/24 07:51:23;;;;;;;;;;;;;;;2.61;74.82;101627.66;1087876;54;19939;-79
2023/01/24 07:52:30;;;;;;;;;;;;;;;2.62;74.88;101629.38;1089152;47;19943;-79
2023/01/24 07:53:36;;;;;;;;;;;;;;;2.63;74.73;101626.69;1087864;54;19931;-78
2023/01/24 07:54:37;;;;;;;;;;;;;;;2.57;74.53;101621.63;1087906;54;19938;-79
2023/01/24 07:55:41;;;;;;;;;;;;;;;2.57;74.83;101628.69;1088431;47;19927;-79
2023/01/24 07:56:45;;;;;;;;;;;;;;;2.57;74.71;101632.19;1087953;54;19946;-79
2023/01/24 07:57:49;;;;;;;;;;;;;;;2.60;74.86;101629.44;1090093;47;19938;-79
2023/01/24 07:58:50;;;;;;;;;;;;;;;2.62;74.61;101630.25;1089945;47;19954;-78
2023/01/24 07:59:56;;;;;;;;;;;;;;;2.66;74.51;101628.34;1088999;47;19938;-79
2023/01/24 08:00:59;;;;;;;;;;;;;;;2.62;74.39;101651.38;1087927;54;19938;-79
2023/01/24 08:02:03;;;;;;;;;;;;;;;2.57;74.69;101636.59;1089561;47;19942;-79
2023/01/24 08:03:04;;;;;;;;;;;;;;;2.59;74.55;101634.78;1087869;54;19938;-78
2023/01/24 08:04:08;;;;;;;;;;;;;;;2.54;74.49;101637.59;1087914;54;19938;-78
2023/01/24 08:05:14;;;;;;;;;;;;;;;2.49;74.70;101635.09;1087872;54;19930;-79
2023/01/24 08:06:18;;;;;;;;;;;;;;;2.49;74.95;101647.44;1087812;54;19945;-78
2023/01/24 08:07:20;;;;;;;;;;;;;;;2.52;75.15;101647.31;1087886;54;19930;-78
2023/01/24 08:08:23;;;;;;;;;;;;;;;2.50;74.94;101644.72;1089377;47;19990;-78
2023/01/24 08:09:24;;;;;;;;;;;;;;;2.51;75.01;101642.97;1087788;54;20282;-79
2023/01/24 08:10:29;;;;;;;;;;;;;;;2.49;75.47;101639.50;1087845;54;19945;-78
2023/01/24 08:11:30;;;;;;;;;;;;;;;2.53;75.26;101643.78;1087897;54;19992;-78
2023/01/24 08:12:33;;;;;;;;;;;;;;;2.53;75.00;101650.81;1089790;47;20016;-80
2023/01/24 08:13:37;;;;;;;;;;;;;;;2.58;74.87;101649.75;1087914;54;19945;-80
2023/01/24 08:14:41;;;;;;;;;;;;;;;2.54;75.00;101645.50;1087932;54;19939;-78
2023/01/24 08:15:48;;;;;;;;;;;;;;;2.55;74.96;101644.56;1088140;47;19939;-80
2023/01/24 08:16:49;;;;;;;;;;;;;;;2.56;75.01;101646.28;1087886;54;19939;-81
2023/01/24 08:17:53;;;;;;;;;;;;;;;2.53;74.88;101653.47;1088019;47;19939;-80
2023/01/24 08:18:54;;;;;;;;;;;;;;;2.50;75.18;101655.28;1088057;47;19987;-78
2023/01/24 08:19:57;;;;;;;;;;;;;;;2.55;75.11;101660.41;1087804;54;20367;-78
2023/01/24 08:21:04;;;;;;;;;;;;;;;2.56;75.16;101666.56;1087864;54;19938;-78
2023/01/24 08:22:05;;;;;;;;;;;;;;;2.57;75.08;101671.78;1087952;54;19963;-78
2023/01/24 08:23:09;;;;;;;;;;;;;;;2.63;74.96;101674.22;1088186;47;19971;-78
2023/01/24 08:24:10;;;;;;;;;;;;;;;2.65;74.56;101676.81;1088967;47;19949;-80
2023/01/24 08:25:13;;;;;;;;;;;;;;;2.62;74.71;101676.91;1091079;47;19939;-80
2023/01/24 08:26:14;;;;;;;;;;;;;;;2.58;74.79;101673.50;1087987;47;19939;-80
2023/01/24 08:27:18;;;;;;;;;;;;;;;2.58;74.79;101676.16;1089823;47;19950;-80
2023/01/24 08:28:19;;;;;;;;;;;;;;;2.63;75.02;101676.00;1087953;54;19946;-80
2023/01/24 08:29:23;;;;;;;;;;;;;;;2.63;74.72;101671.59;1087923;54;19938;-80
2023/01/24 08:30:26;;;;;;;;;;;;;;;2.70;74.84;101674.84;1087803;54;19923;-78
2023/01/24 08:31:27;;;;;;;;;;;;;;;2.67;74.39;101679.38;1087897;54;19939;-78
2023/01/24 08:32:31;;;;;;;;;;;;;;;2.64;74.10;101675.06;1087839;54;19983;-81
2023/01/24 08:33:37;;;;;;;;;;;;;;;2.62;74.42;101676.91;1087911;54;19926;-80
2023/01/24 08:34:41;;;;;;;;;;;;;;;2.60;74.58;101678.72;1087868;54;19949;-78
2023/01/24 08:35:44;;;;;;;;;;;;;;;2.61;74.77;101680.47;1089732;47;19938;-78
2023/01/24 08:36:48;;;;;;;;;;;;;;;2.61;74.70;101681.34;1087892;54;19961;-78
2023/01/24 08:37:52;;;;;;;;;;;;;;;2.64;74.91;101673.31;1088128;47;19967;-78
2023/01/24 08:38:56;;;;;;;;;;;;;;;2.68;74.61;101681.09;1087922;54;19939;-79
2023/01/24 08:39:59;;;;;;;;;;;;;;;2.64;74.57;101673.31;1088530;47;19943;-79
2023/01/24 08:41:05;;;;;;;;;;;;;;;2.67;74.49;101674.97;1089182;47;19951;-78
2023/01/24 08:42:06;;;;;;;;;;;;;;;2.70;74.54;101680.13;1087978;47;19942;-78
2023/01/24 08:43:09;;;;;;;;;;;;;;;2.74;73.82;101675.63;1088319;39;20527;-78
2023/01/24 08:44:11;;;;;;;;;;;;;;;2.68;74.18;101678.47;1088758;47;19958;-78
2023/01/24 08:45:14;;;;;;;;;;;;;;;2.65;74.35;101676.81;1087792;54;19938;-78
2023/01/24 08:46:15;;;;;;;;;;;;;;;2.65;74.37;101682.94;1087793;54;19945;-78
2023/01/24 08:47:19;;;;;;;;;;;;;;;2.69;74.40;101688.13;1087870;54;19930;-79
2023/01/24 08:48:20;;;;;;;;;;;;;;;2.67;74.30;101684.66;1087854;54;19939;-78
2023/01/24 08:49:24;;;;;;;;;;;;;;;2.71;74.25;101691.56;1087824;54;19923;-78
2023/01/24 08:50:25;;;;;;;;;;;;;;;2.73;74.01;101692.41;1087859;47;19946;-79
2023/01/24 08:51:28;;;;;;;;;;;;;;;2.78;74.30;101688.69;1087810;54;19942;-78
2023/01/24 08:52:35;;;;;;;;;;;;;;;2.85;74.01;101699.00;1088185;54;19939;-78
2023/01/24 08:53:38;;;;;;;;;;;;;;;2.86;73.64;101696.31;1088219;54;19942;-78
2023/01/24 08:54:42;;;;;;;;;;;;;;;2.84;73.72;101697.28;1088288;46;19923;-79
2023/01/24 08:55:46;;;;;;;;;;;;;;;2.83;73.93;101701.72;1088114;54;19923;-78
2023/01/24 08:56:47;;;;;;;;;;;;;;;2.81;73.94;101704.41;1088206;54;19923;-79
2023/01/24 08:57:50;;;;;;;;;;;;;;;2.77;73.89;101700.16;1088227;54;19942;-79
2023/01/24 08:58:54;;;;;;;;;;;;;;;2.78;73.77;101698.34;1088525;46;19927;-78
2023/01/24 08:59:58;;;;;;;;;;;;;;;2.78;73.80;101708.94;1088147;54;19939;-78
2023/01/24 09:00:59;;;;;;;;;;;;;;;2.79;73.90;101700.09;1089788;46;19943;-78
2023/01/24 09:02:03;;;;;;;;;;;;;;;2.86;73.77;101706.03;1088098;54;19946;-79
2023/01/24 09:03:04;;;;;;;;;;;;;;;2.81;73.47;101703.53;1088780;46;19946;-78
2023/01/24 09:04:08;;;;;;;;;;;;;;;2.84;73.37;101703.41;1089204;46;19938;-78
2023/01/24 09:05:09;;;;;;;;;;;;;;;2.77;73.66;101705.44;1088102;54;19939;-78
2023/01/24 09:06:14;;;;;;;;;;;;;;;2.80;73.46;101704.47;1088111;54;19978;-79
2023/01/24 09:07:18;;;;;;;;;;;;;;;2.71;73.69;101707.41;1088171;54;20011;-79
2023/01/24 09:08:22;;;;;;;;;;;;;;;2.73;73.98;101708.25;1088198;54;19939;-79
2023/01/24 09:09:26;;;;;;;;;;;;;;;2.69;73.86;101706.59;1088133;54;19946;-79
2023/01/24 09:10:28;;;;;;;;;;;;;;;2.66;74.17;101712.88;1089060;46;19931;-79
2023/01/24 09:11:31;;;;;;;;;;;;;;;2.68;74.07;101703.13;1088897;46;19946;-79
2023/01/24 09:12:38;;;;;;;;;;;;;;;2.69;74.20;101709.25;1088495;46;19962;-79
2023/01/24 09:13:39;;;;;;;;;;;;;;;2.73;73.89;101713.53;1089122;46;19949;-81
2023/01/24 09:14:45;;;;;;;;;;;;;;;2.73;73.86;101711.72;1088517;54;19943;-82
2023/01/24 09:15:47;;;;;;;;;;;;;;;2.72;73.97;101722.34;1088459;54;20878;-81
2023/01/24 09:16:51;;;;;;;;;;;;;;;2.76;74.35;101718.69;1088415;54;19974;-80
2023/01/24 09:17:52;;;;;;;;;;;;;;;2.73;73.81;101716.16;1089365;46;19982;-80
2023/01/24 09:19:00;;;;;;;;;;;;;;;2.76;73.63;101716.91;1088400;54;19954;-80
2023/01/24 09:20:04;;;;;;;;;;;;;;;2.74;73.89;101720.53;1088394;54;19943;-82
2023/01/24 09:21:08;;;;;;;;;;;;;;;2.78;73.78;101716.84;1088419;54;19943;-82
2023/01/24 09:22:12;;;;;;;;;;;;;;;2.76;73.84;101719.56;1089410;39;20606;-81
2023/01/24 09:23:14;;;;;;;;;;;;;;;2.74;73.83;101717.91;1088444;54;19967;-82
2023/01/24 09:24:21;;;;;;;;;;;;;;;2.74;74.17;101718.75;1088456;54;19942;-80
2023/01/24 09:25:22;;;;;;;;;;;;;;;2.78;73.98;101722.13;1088371;54;19927;-83
2023/01/24 09:26:26;;;;;;;;;;;;;;;2.78;74.04;101725.66;1091017;46;19950;-81
2023/01/24 09:27:27;;;;;;;;;;;;;;;2.83;73.87;101721.97;1088466;54;19973;-81
2023/01/24 09:28:33;;;;;;;;;;;;;;;2.79;73.78;101715.94;1088246;54;19982;-78
2023/01/24 09:29:36;;;;;;;;;;;;;;;2.85;73.77;101723.63;1090004;46;19926;-79
2023/01/24 09:30:40;;;;;;;;;;;;;;;2.82;73.83;101729.03;1088102;54;19942;-81
2023/01/24 09:31:41;;;;;;;;;;;;;;;2.84;73.89;101726.34;1088121;54;19938;-79
2023/01/24 09:32:46;;;;;;;;;;;;;;;2.80;73.90;101728.22;1088154;54;19923;-80
2023/01/24 09:33:50;;;;;;;;;;;;;;;2.77;73.82;101726.56;1088128;54;19963;-78
2023/01/24 09:34:51;;;;;;;;;;;;;;;2.77;73.97;101718.66;1088096;47;20332;-79
2023/01/24 09:35:56;;;;;;;;;;;;;;;2.73;73.93;101726.72;1087941;54;19942;-80
2023/01/24 09:37:00;;;;;;;;;;;;;;;2.74;73.93;101733.75;1088135;54;19961;-79
2023/01/24 09:38:01;;;;;;;;;;;;;;;2.77;74.09;101725.69;1089421;46;19939;-80
2023/01/24 09:39:05;;;;;;;;;;;;;;;2.77;73.74;101730.97;1088393;46;19939;-79
2023/01/24 09:40:17;;;;;;;;;;;;;;;2.77;73.83;101731.84;1088110;54;19943;-78
2023/01/24 09:41:34;;;;;;;;;;;;;;;2.79;74.03;101726.50;1088658;54;19927;-81
2023/01/24 09:42:38;;;;;;;;;;;;;;;2.75;74.13;101723.09;1088712;54;19943;-82
2023/01/24 09:43:48;;;;;;;;;;;;;;;2.77;74.19;101723.03;1088602;54;19942;-82
2023/01/24 09:44:57;;;;;;;;;;;;;;;2.80;74.19;101728.22;1088594;54;19958;-82
2023/01/24 09:46:05;;;;;;;;;;;;;;;2.81;74.21;101725.53;1088581;54;19926;-81
2023/01/24 09:47:21;;;;;;;;;;;;;;;2.84;73.96;101732.47;1091054;39;20510;-81
2023/01/24 09:48:22;;;;;;;;;;;;;;;2.83;73.92;101729.91;1088498;54;19934;-82
2023/01/24 09:49:33;;;;;;;;;;;;;;;2.83;73.79;101721.97;1088685;54;19943;-81
2023/01/24 09:50:40;;;;;;;;;;;;;;;2.85;74.13;101736.00;1088579;54;19943;-82
2023/01/24 09:51:45;;;;;;;;;;;;;;;2.86;73.93;101733.28;1088584;54;19943;-82
2023/01/24 09:52:57;;;;;;;;;;;;;;;2.89;73.67;101734.94;1090025;39;20483;-81
2023/01/24 09:54:00;;;;;;;;;;;;;;;2.87;73.59;101729.75;1092484;39;20527;-81
2023/01/24 09:55:08;;;;;;;;;;;;;;;2.86;73.71;101735.94;1088536;54;19927;-81
2023/01/24 09:56:22;;;;;;;;;;;;;;;2.84;73.78;101728.97;1088602;54;19942;-81
2023/01/24 09:57:26;;;;;;;;;;;;;;;2.85;73.64;101736.84;1090535;39;20389;-81
2023/01/24 09:58:32;;;;;;;;;;;;;;;2.86;73.75;101733.28;1090087;46;19978;-81
2023/01/24 09:59:40;;;;;;;;;;;;;;;2.89;73.67;101729.66;1088589;54;19938;-81
2023/01/24 10:00:43;;;;;;;;;;;;;;;2.90;73.64;101739.31;1088611;54;19942;-81
2023/01/24 10:01:46;;;;;;;;;;;;;;;2.94;73.51;101736.53;1088265;54;19939;-81
2023/01/24 10:02:50;;;;;;;;;;;;;;;2.91;73.52;101731.38;1088330;54;19934;-82
2023/01/24 10:03:54;;;;;;;;;;;;;;;2.86;73.56;101730.66;1090759;46;19950;-82
2023/01/24 10:05:01;;;;;;;;;;;;;;;2.94;73.34;101736.53;1088511;54;19942;-82
2023/01/24 10:06:10;;;;;;;;;;;;;;;2.89;73.68;101730.56;1088431;46;19923;-83
2023/01/24 10:07:25;;;;;;;;;;;;;;;2.87;73.64;101732.38;1096347;46;19927;-82
2023/01/24 10:08:33;;;;;;;;;;;;;;;2.94;73.59;101730.38;1096529;46;19926;-81
2023/01/24 10:09:42;;;;;;;;;;;;;;;2.90;73.52;101723.47;1090115;46;19922;-82
2023/01/24 10:10:56;;;;;;;;;;;;;;;2.90;73.75;101723.47;1088585;54;19938;-81
2023/01/24 10:12:02;;;;;;;;;;;;;;;2.95;73.57;101727.69;1091392;46;20045;-81
2023/01/24 10:13:20;;;;;;;;;;;;;;;2.94;73.55;101719.81;1093405;46;19942;-80
2023/01/24 10:14:38;;;;;;;;;;;;;;;2.88;73.36;101720.91;1088640;54;19935;-80
2023/01/24 10:15:43;;;;;;;;;;;;;;;2.90;73.42;101719.06;1088609;54;19935;-81
2023/01/24 10:16:58;;;;;;;;;;;;;;;2.97;73.58;101723.22;1091271;46;19930;-81
2023/01/24 10:18:16;;;;;;;;;;;;;;;2.96;73.43;101718.84;1088507;54;20579;-82
2023/01/24 10:19:33;;;;;;;;;;;;;;;2.95;73.11;101716.25;1091998;46;19942;-83
2023/01/24 10:20:47;;;;;;;;;;;;;;;2.97;73.09;101719.72;1089312;46;19942;-81
2023/01/24 10:22:14;;;;;;;;;;;;;;;2.96;73.44;101718.84;1088460;54;19939;-82
2023/01/24 10:23:22;;;;;;;;;;;;;;;3.07;73.42;101710.53;1088589;54;19994;-84
2023/01/24 10:24:29;;;;;;;;;;;;;;;3.12;72.87;101719.16;1088600;54;19938;-81
2023/01/24 10:25:36;;;;;;;;;;;;;;;3.11;72.22;101716.59;1088465;54;19943;-81
2023/01/24 10:26:43;;;;;;;;;;;;;;;3.02;72.74;101715.13;1088252;47;19947;-79
2023/01/24 10:27:49;;;;;;;;;;;;;;;3.04;72.83;101712.41;1088874;46;19930;-82
2023/01/24 10:28:53;;;;;;;;;;;;;;;3.05;72.95;101712.38;1088591;54;19977;-81
2023/01/24 10:29:57;;;;;;;;;;;;;;;3.07;72.47;101714.94;1088491;54;19922;-81
2023/01/24 10:31:05;;;;;;;;;;;;;;;3.07;72.53;101714.94;1088512;54;19975;-82
2023/01/24 10:32:11;;;;;;;;;;;;;;;3.04;72.46;101720.34;1088492;54;19934;-81
2023/01/24 10:33:17;;;;;;;;;;;;;;;3.03;72.84;101714.22;1088327;54;19934;-82
2023/01/24 10:34:28;;;;;;;;;;;;;;;3.05;72.47;101717.66;1088447;54;19946;-81
2023/01/24 10:35:35;;;;;;;;;;;;;;;3.05;72.47;101716.78;1088473;54;20271;-82
2023/01/24 10:36:44;;;;;;;;;;;;;;;3.04;72.50;101715.06;1094511;39;20702;-81
2023/01/24 10:37:48;;;;;;;;;;;;;;;3.03;72.58;101714.22;1088467;54;19954;-82
2023/01/24 10:38:52;;;;;;;;;;;;;;;3.02;72.43;101716.91;1088542;54;19943;-82
2023/01/24 10:39:54;;;;;;;;;;;;;;;3.04;72.62;101717.69;1088585;54;19942;-81
2023/01/24 10:40:59;;;;;;;;;;;;;;;3.06;72.72;101713.22;1088520;54;19943;-82
2023/01/24 10:42:06;;;;;;;;;;;;;;;3.11;72.57;101717.44;1088556;54;19949;-82
2023/01/24 10:43:09;;;;;;;;;;;;;;;3.15;72.56;101715.53;1088623;54;19942;-81
2023/01/24 10:44:20;;;;;;;;;;;;;;;3.20;72.60;101705.66;1088558;54;19967;-82